Hauptseite
METAR-TAF:

METAR-TAF

Flughäfen :

Flughafen Braunschweig-Wolfsburg

Braunschweig, Deutschland

Breite: 52-18N, Länge: 010-27E, Höhe: 81 m

Beobachtung

Neuester Wetterbericht von vor 3 Stunden und 46 Minuten, um 15:50 UTC
Wind 7 kt aus West/Südwest, variierte zwischen Südwest und West/Nordwest
Temperatur 27°C
Luftfeuchtigkeit 28%
Luftdruck 1017 hPa
Sichtweite 10 km oder mehr
keine Wolken unter 1500 m und keine Kumulonimbus oder Gewitterwolken

METAR: EDVE 051550Z 25007KT 220V290 CAVOK 27/07 Q1017

Zeit: 21:36 (19:36 UTC)

Prognose

Neuester Wetterbericht von vor 5 Stunden und 36 Minuten, um 14:00 UTC
Gültige Prognose vom 05 um 15 UTC bis 05 um 21 UTC
Wind 6 kt aus Südwest
Sichtweite 10 km oder mehr
keine Wolken unter 1500 m und keine Kumulonimbus oder Gewitterwolken
Übergehend zu
vom 05 um 17 UTC bis 05 um 19 UTC
Wind 4 kt aus Süd

TAF: EDVE 051400Z 0515/0521 23006KT CAVOK BECMG 0517/0519 17004KT

Wetterbeobachtungen und Prognosen von mehr als 4000 Flughäfen (METAR und TAF Bericht).

Die verfügbaren Stationen werden durch gelbe und rote Markierungen auf der Karte dargestellt.

Führen Sie die Maus auf sie, um den Namen der Station zu sehen.

Darauf klicken, um die Beobachtung von Wetterbeobachtungen und Prognosen zu sehen.

Um die Karte zu ändern : klicken Sie auf den grünen Tasten mit einem schwarzen Kreuz Zum Vergrößern, auf den grünen Button mit einem Gedankenstrich zu verkleinern, oder auf die grünen Pfeile für benachbarte Karten.


METAR-TAF: